WetterOnline ( http://www.wetteronline.de )

Wetter aktuell Mora

Aktuelles Wetter: Mora (197m)

6-stündlich | Neueste Meldungen
Ortszeit Temperatur Wetter
Mi, 19.12. 13:00 -5.2° C bedeckt
Mi, 19.12. 7:00 -6.6° C bedeckt
Mi, 19.12. 1:00 -6.7° C bedeckt
Di, 18.12. 19:00 -6.6° C bedeckt
Di, 18.12. 13:00 -6.6° C leichter Schneefall
Di, 18.12. 7:00 -4.5° C leichte Schneeschauer
Di, 18.12. 1:00 -4.4° C leichter Schneefall
Mo, 17.12. 19:00 -5.8° C bedeckt
Ortszeit Temperatur Wetter
Mi, 19.12. 17:20 -2° C bedeckt, Dunst
Mi, 19.12. 17:00 -3.4° C bedeckt
Mi, 19.12. 16:50 -3° C bedeckt
Mi, 19.12. 16:20 -2° C bedeckt
Mi, 19.12. 16:00 -2.4° C bedeckt
Mi, 19.12. 15:50 -4° C bedeckt
Mi, 19.12. 15:20 -4° C bedeckt
Mi, 19.12. 15:00 -4.8° C bedeckt
Mi, 19.12. 14:20 -5° C bedeckt
Mi, 19.12. 14:00 -4.9° C bedeckt
Ortszeit Relative Feuchte Sichtweite
Mi, 19.12. 13:00 86% 14 km
Mi, 19.12. 7:00 85% 5.0 km
Mi, 19.12. 1:00 82% 45 km
Di, 18.12. 19:00 81% 45 km
Di, 18.12. 13:00 85% 2.0 km
Di, 18.12. 7:00 84% 3.7 km
Di, 18.12. 1:00 87% 7 km
Mo, 17.12. 19:00 85% 26 km
Ortszeit Relative Feuchte Sichtweite
Mi, 19.12. 17:20 100% 8 km
Mi, 19.12. 17:00 85% 10 km
Mi, 19.12. 16:50 93% >10 km
Mi, 19.12. 16:20 100% >10 km
Mi, 19.12. 16:00 91% 8 km
Mi, 19.12. 15:50 100% >10 km
Mi, 19.12. 15:20 93% >10 km
Mi, 19.12. 15:00 86% 14 km
Mi, 19.12. 14:20 100% >10 km
Mi, 19.12. 14:00 86% 15 km
Ortszeit Niederschlagsmenge Niederschlagsart
Mi, 19.12. 13:00 0.0 l/m2 in 1 Std. -
Mi, 19.12. 7:00 0.0 l/m2 in 12 Std. -
Mi, 19.12. 1:00 0.0 l/m2 in 1 Std. -
Di, 18.12. 19:00 2 l/m2 in 12 Std. -
Di, 18.12. 13:00 0.3 l/m2 in 1 Std. Schnee
Di, 18.12. 7:00 0.3 l/m2 in 12 Std. Schnee
Di, 18.12. 1:00 0.1 l/m2 in 1 Std. -
Mo, 17.12. 19:00 0.9 l/m2 in 12 Std. -
Ortszeit Niederschlagsmenge Niederschlagsart
Mi, 19.12. 17:20 keine Meldung -
Mi, 19.12. 17:00 0.0 l/m2 in 1 Std. -
Mi, 19.12. 16:50 keine Meldung -
Mi, 19.12. 16:20 keine Meldung -
Mi, 19.12. 16:00 0.0 l/m2 in 1 Std. -
Mi, 19.12. 15:50 keine Meldung -
Mi, 19.12. 15:20 keine Meldung -
Mi, 19.12. 15:00 0.0 l/m2 in 1 Std. -
Mi, 19.12. 14:20 keine Meldung -
Mi, 19.12. 14:00 0.0 l/m2 in 1 Std. -
Ortszeit Stärke Spitze Richtung
km/h Bft. km/h Grad Sektor
Mi, 19.12. 13:00 4 1 7 340° N
Mi, 19.12. 7:00 4 1 7 300° NW
Mi, 19.12. 1:00 0 0 4 - -
Di, 18.12. 19:00 0 0 4 - -
Di, 18.12. 13:00 7 2 11 350° N
Di, 18.12. 7:00 4 1 4 260° W
Di, 18.12. 1:00 4 1 7 210° SW
Mo, 17.12. 19:00 4 1 4 160° S
Ortszeit Stärke Spitze Richtung
km/h Bft. km/h Grad Sektor
Mi, 19.12. 17:20 7 2 - 140° SO
Mi, 19.12. 17:00 0 0 11 - -
Mi, 19.12. 16:50 4 1 - 100° O
Mi, 19.12. 16:20 6 1 - 120° SO
Mi, 19.12. 16:00 4 1 7 110° O
Mi, 19.12. 15:50 2 1 - uml. uml.
Mi, 19.12. 15:20 4 1 - 340° N
Mi, 19.12. 15:00 4 1 7 350° N
Mi, 19.12. 14:20 7 2 - 330° NW
Mi, 19.12. 14:00 4 1 7 340° N
Ortszeit Untergrenze Bedeckung Gattung
total tief tief mittel hoch
Mi, 19.12. 13:00 150 m 8/8 8/8 - - -
Mi, 19.12. 7:00 150 m 8/8 8/8 - - -
Mi, 19.12. 1:00 270 m 8/8 8/8 - - -
Di, 18.12. 19:00 450 m 8/8 8/8 - - -
Di, 18.12. 13:00 690 m - - - - -
Di, 18.12. 7:00 360 m 8/8 8/8 - - -
Di, 18.12. 1:00 330 m 8/8 8/8 - - -
Mo, 17.12. 19:00 270 m 8/8 8/8 - - -
Ortszeit Bedeckungsgrad in Achtel und Wolkenuntergrenze
Mi, 19.12. 17:20 8(120m)
Mi, 19.12. 17:00 7(180m) 8(210m)
Mi, 19.12. 16:50 8(150m)
Mi, 19.12. 16:20 8(150m)
Mi, 19.12. 16:00 8(180m)
Mi, 19.12. 15:50 8(150m)
Mi, 19.12. 15:20 8(180m)
Mi, 19.12. 15:00 8(180m)
Mi, 19.12. 14:20 8(120m)
Mi, 19.12. 14:00 8(120m)
Ortszeit Luftdruck NN (hPa) Tendenz (hPa in 3 Std.)
Mi, 19.12. 13:00 1024 - 1,2
Mi, 19.12. 7:00 1025 - 0,5
Mi, 19.12. 1:00 1026 0,0
Di, 18.12. 19:00 1026 + 0,9
Di, 18.12. 13:00 1025 + 0,6
Di, 18.12. 7:00 1023 + 0,6
Di, 18.12. 1:00 1022 0,0
Mo, 17.12. 19:00 1021 + 0,9
Ortszeit Luftdruck NN (hPa) Tendenz (hPa in 3 Std.)
Mi, 19.12. 17:20 1021 keine Meldung
Mi, 19.12. 17:00 1022 - 0,7
Mi, 19.12. 16:50 1021 keine Meldung
Mi, 19.12. 16:20 1021 keine Meldung
Mi, 19.12. 16:00 1022 - 1,0
Mi, 19.12. 15:50 1021 keine Meldung
Mi, 19.12. 15:20 1021 keine Meldung
Mi, 19.12. 15:00 1023 - 1,2
Mi, 19.12. 14:20 1021 keine Meldung
Mi, 19.12. 14:00 1023 - 1,2
Ortszeit Schneehöhe (cm)
Mi, 19.12. 13:00 -
Mi, 19.12. 7:00 -
Mi, 19.12. 1:00 -
Di, 18.12. 19:00 -
Di, 18.12. 13:00 -
Di, 18.12. 7:00 -
Di, 18.12. 1:00 -
Mo, 17.12. 19:00 -
Ortszeit Schneehöhe (cm)
Mi, 19.12. 17:20 -
Mi, 19.12. 17:00 -
Mi, 19.12. 16:50 -
Mi, 19.12. 16:20 -
Mi, 19.12. 16:00 -
Mi, 19.12. 15:50 -
Mi, 19.12. 15:20 -
Mi, 19.12. 15:00 -
Mi, 19.12. 14:20 -
Mi, 19.12. 14:00 -
Link zu dieser Seite / Seite empfehlen

Das Wetter in ...